createdAt,value
2022-09-07T00:01:16.584Z,90.30
2022-09-07T00:03:49.753Z,90.40
2022-09-07T00:06:22.234Z,90.40
2022-09-07T00:08:54.005Z,90.50
2022-09-07T00:11:25.781Z,90.60
2022-09-07T00:13:57.729Z,90.70
2022-09-07T00:16:30.577Z,90.70
2022-09-07T00:19:04.520Z,90.70
2022-09-07T00:21:37.331Z,90.70
2022-09-07T00:24:09.111Z,90.80
2022-09-07T00:26:40.860Z,90.80
2022-09-07T00:29:12.632Z,90.80
2022-09-07T00:31:44.459Z,90.90
2022-09-07T00:34:17.631Z,91.00
2022-09-07T00:36:49.384Z,91.10
2022-09-07T00:39:21.201Z,91.20
2022-09-07T00:41:52.954Z,91.30
2022-09-07T00:45:07.610Z,91.40
2022-09-07T00:47:46.089Z,91.80
2022-09-07T00:50:23.196Z,91.80
2022-09-07T00:53:00.053Z,91.80
2022-09-07T00:55:32.400Z,91.80
2022-09-07T00:58:05.897Z,91.90
2022-09-07T01:00:39.737Z,92.00
2022-09-07T01:03:12.412Z,92.20
2022-09-07T01:05:48.292Z,92.30
2022-09-07T01:08:20.081Z,92.40
2022-09-07T01:10:51.971Z,92.30
2022-09-07T01:13:24.205Z,92.30
2022-09-07T01:16:04.007Z,92.40
2022-09-07T01:18:42.765Z,92.50
2022-09-07T01:21:24.172Z,92.60
2022-09-07T01:24:21.486Z,92.70
2022-09-07T01:27:38.235Z,92.80
2022-09-07T01:30:13.366Z,92.80
2022-09-07T01:33:02.720Z,92.90
2022-09-07T01:35:41.440Z,93.10
2022-09-07T01:38:21.908Z,93.20
2022-09-07T01:41:00.084Z,93.30
2022-09-07T01:43:39.851Z,93.40
2022-09-07T01:46:18.814Z,93.50
2022-09-07T01:48:53.249Z,93.60
2022-09-07T01:51:31.141Z,93.70
2022-09-07T01:54:09.139Z,93.90
2022-09-07T01:56:43.477Z,94.00
2022-09-07T01:59:19.159Z,94.20
2022-09-07T02:01:57.694Z,94.40
2022-09-07T02:04:35.239Z,94.70
2022-09-07T02:07:12.797Z,94.80
2022-09-07T02:09:51.421Z,94.90
2022-09-07T02:12:29.241Z,95.00
2022-09-07T02:15:05.367Z,95.10
2022-09-07T02:17:42.663Z,95.30
2022-09-07T02:20:19.255Z,95.40
2022-09-07T02:22:55.394Z,95.80
2022-09-07T02:25:32.813Z,96.10
2022-09-07T02:28:08.536Z,96.50
2022-09-07T02:30:40.555Z,96.90
2022-09-07T02:33:14.197Z,97.20
2022-09-07T02:35:46.379Z,97.50
2022-09-07T02:38:18.834Z,97.80
2022-09-07T02:40:51.709Z,97.90
2022-09-07T02:43:25.191Z,98.00
2022-09-07T02:46:18.463Z,98.00
2022-09-07T02:49:01.489Z,98.20
2022-09-07T02:51:42.774Z,98.00
2022-09-07T02:54:29.916Z,97.90
2022-09-07T02:57:11.422Z,97.90
2022-09-07T03:00:00.398Z,97.80
2022-09-07T03:02:41.405Z,97.80
2022-09-07T03:05:19.485Z,97.70
2022-09-07T03:08:01.252Z,97.60
2022-09-07T03:10:37.510Z,97.60
2022-09-07T03:13:18.897Z,97.60
2022-09-07T03:15:55.530Z,97.90
2022-09-07T03:18:28.832Z,97.70
2022-09-07T03:21:01.999Z,97.70
2022-09-07T03:23:34.082Z,97.80
2022-09-07T03:26:06.275Z,97.80
2022-09-07T03:28:38.051Z,97.80
2022-09-07T03:31:09.965Z,97.90
2022-09-07T03:33:41.781Z,98.10
2022-09-07T03:36:14.915Z,98.40
2022-09-07T03:38:46.729Z,98.80
2022-09-07T03:41:18.577Z,99.20
2022-09-07T03:43:50.352Z,99.60
2022-09-07T03:46:22.428Z,99.70
2022-09-07T03:48:54.292Z,99.80
2022-09-07T03:51:27.482Z,99.80
2022-09-07T03:54:00.352Z,99.80
2022-09-07T03:56:32.203Z,99.90
2022-09-07T03:59:04.084Z,99.90
2022-09-07T04:01:36.470Z,99.90
2022-09-07T04:04:08.785Z,99.90
2022-09-07T04:06:41.900Z,99.90
2022-09-07T04:09:15.205Z,99.90
2022-09-07T04:11:46.899Z,99.90
2022-09-07T04:14:18.786Z,99.90
2022-09-07T04:16:51.034Z,99.90
2022-09-07T04:19:22.866Z,99.90
2022-09-07T04:21:56.021Z,99.90
2022-09-07T04:24:27.918Z,99.90
2022-09-07T04:26:59.881Z,99.90
2022-09-07T04:29:31.677Z,99.70
2022-09-07T04:32:03.501Z,99.50
2022-09-07T04:34:35.328Z,99.40
2022-09-07T04:37:08.445Z,99.40
2022-09-07T04:39:40.268Z,99.70
2022-09-07T04:42:12.286Z,99.90
2022-09-07T04:44:44.217Z,99.90
2022-09-07T04:47:16.106Z,99.90
2022-09-07T04:49:50.597Z,99.90
2022-09-07T04:52:24.079Z,99.90
2022-09-07T04:54:55.919Z,99.90
2022-09-07T04:57:27.697Z,99.90
2022-09-07T05:00:00.552Z,99.90
2022-09-07T05:02:32.376Z,99.90
2022-09-07T05:05:04.595Z,99.90
2022-09-07T05:07:37.724Z,99.90
2022-09-07T05:10:09.841Z,99.90
2022-09-07T05:12:41.621Z,99.90
2022-09-07T05:15:13.478Z,99.90
2022-09-07T05:17:45.252Z,99.90
2022-09-07T05:20:20.482Z,99.90
2022-09-07T05:22:59.528Z,99.90
2022-09-07T05:25:31.464Z,99.90
2022-09-07T05:28:04.148Z,99.90
2022-09-07T05:36:20.612Z,99.90
2022-09-07T05:38:54.419Z,99.90
2022-09-07T05:41:26.957Z,99.90
2022-09-07T05:46:51.518Z,99.90
2022-09-07T05:49:23.350Z,99.90
2022-09-07T05:51:55.165Z,99.90
2022-09-07T05:54:28.304Z,99.90
2022-09-07T05:57:00.074Z,99.90
2022-09-07T05:59:31.955Z,99.90
2022-09-07T06:02:04.108Z,99.90
2022-09-07T06:04:36.010Z,99.90
2022-09-07T06:07:21.675Z,99.90
2022-09-07T06:12:49.191Z,99.90
2022-09-07T06:15:21.401Z,99.90
2022-09-07T06:17:53.859Z,99.90
2022-09-07T06:20:25.794Z,99.90
2022-09-07T06:22:58.517Z,99.90
2022-09-07T06:25:31.636Z,99.90
2022-09-07T06:28:03.702Z,99.90
2022-09-07T06:30:35.507Z,99.90
2022-09-07T06:33:07.326Z,99.90
2022-09-07T06:35:39.089Z,99.90
2022-09-07T06:38:10.854Z,99.90
2022-09-07T06:40:44.035Z,99.90
2022-09-07T06:43:15.801Z,99.90
2022-09-07T06:45:53.357Z,99.90
2022-09-07T06:48:25.638Z,99.90
2022-09-07T06:50:59.303Z,99.90
2022-09-07T06:56:13.995Z,99.90
2022-09-07T06:58:46.482Z,99.90
2022-09-07T07:01:20.738Z,99.90
2022-09-07T07:03:54.115Z,99.90
2022-09-07T07:06:32.856Z,99.90
2022-09-07T07:09:06.550Z,99.90
2022-09-07T07:11:39.810Z,99.90
2022-09-07T07:14:13.717Z,99.90
2022-09-07T07:16:45.509Z,99.90
2022-09-07T07:19:17.371Z,99.90
2022-09-07T07:22:10.730Z,99.90
2022-09-07T07:24:40.918Z,99.90
2022-09-07T07:27:14.015Z,99.90
2022-09-07T07:29:46.097Z,99.90
2022-09-07T07:32:17.892Z,99.90
2022-09-07T07:34:49.614Z,99.90
2022-09-07T07:37:26.008Z,99.90
2022-09-07T07:40:16.975Z,99.90
2022-09-07T07:42:52.251Z,99.90
2022-09-07T07:48:15.838Z,99.90
2022-09-07T07:50:57.577Z,99.90
2022-09-07T07:53:47.225Z,99.90
2022-09-07T07:56:18.991Z,99.90
2022-09-07T07:58:52.499Z,99.90
2022-09-07T08:01:24.421Z,99.70
2022-09-07T08:03:56.674Z,99.30
2022-09-07T08:06:28.553Z,98.80
2022-09-07T08:09:00.300Z,98.20
2022-09-07T08:11:32.058Z,97.80
2022-09-07T08:14:06.184Z,97.20
2022-09-07T08:16:37.990Z,96.70
2022-09-07T08:19:09.811Z,96.50
2022-09-07T08:21:41.543Z,96.30
2022-09-07T08:24:13.292Z,96.00
2022-09-07T08:26:45.029Z,95.40
2022-09-07T08:29:18.143Z,95.30
2022-09-07T08:31:50.279Z,95.20
2022-09-07T08:34:22.634Z,94.80
2022-09-07T08:36:55.037Z,94.40
2022-09-07T08:39:27.751Z,94.20
2022-09-07T08:42:09.904Z,93.90
2022-09-07T08:44:48.201Z,93.70
2022-09-07T08:47:29.816Z,93.50
2022-09-07T08:50:04.827Z,93.50
2022-09-07T08:52:47.817Z,93.20
2022-09-07T08:55:29.592Z,92.90
2022-09-07T08:58:21.891Z,92.80
2022-09-07T09:04:19.378Z,92.30
2022-09-07T09:07:05.776Z,92.10
2022-09-07T09:09:53.393Z,91.90
2022-09-07T09:12:37.681Z,91.40
2022-09-07T09:15:18.034Z,90.60
2022-09-07T09:17:59.039Z,90.30
2022-09-07T09:20:35.778Z,89.80
2022-09-07T09:23:12.424Z,88.70
2022-09-07T09:25:52.252Z,88.30
2022-09-07T09:28:26.473Z,87.80
2022-09-07T09:31:00.758Z,86.90
2022-09-07T09:33:34.120Z,86.60
2022-09-07T09:36:24.670Z,86.30
2022-09-07T09:38:56.377Z,86.00
2022-09-07T09:41:36.536Z,85.40
2022-09-07T09:44:16.080Z,84.40
2022-09-07T09:47:29.608Z,84.20
2022-09-07T09:49:45.466Z,83.40
2022-09-07T09:52:43.940Z,83.10
2022-09-07T09:55:34.598Z,82.90
2022-09-07T10:01:24.864Z,82.10
2022-09-07T10:04:01.365Z,81.20
2022-09-07T10:06:37.505Z,81.00
2022-09-07T10:09:18.783Z,80.70
2022-09-07T10:12:11.867Z,80.20
2022-09-07T10:14:46.300Z,79.20
2022-09-07T10:17:25.412Z,79.10
2022-09-07T10:20:01.005Z,78.70
2022-09-07T10:22:36.485Z,78.80
2022-09-07T10:25:30.473Z,78.70
2022-09-07T10:28:06.030Z,77.90
2022-09-07T10:30:43.195Z,77.60
2022-09-07T10:33:21.332Z,76.60
2022-09-07T10:35:59.972Z,76.20
2022-09-07T10:38:41.035Z,76.10
2022-09-07T10:41:13.291Z,76.10
2022-09-07T10:43:47.215Z,75.60
2022-09-07T10:49:34.882Z,75.60
2022-09-07T10:52:18.025Z,75.30
2022-09-07T10:54:54.717Z,74.90
2022-09-07T10:57:36.687Z,74.90
2022-09-07T11:00:12.858Z,74.30
2022-09-07T11:06:13.595Z,73.10
2022-09-07T11:09:17.248Z,73.00
2022-09-07T11:12:03.366Z,72.80
2022-09-07T11:14:40.823Z,72.70
2022-09-07T11:17:16.871Z,72.70
2022-09-07T11:19:56.038Z,72.80
2022-09-07T11:22:33.498Z,72.50
2022-09-07T11:25:30.826Z,72.20
2022-09-07T11:28:13.092Z,71.80
2022-09-07T11:30:50.047Z,71.50
2022-09-07T11:33:26.856Z,71.30
2022-09-07T11:36:09.866Z,70.20
2022-09-07T11:38:49.111Z,69.60
2022-09-07T11:41:25.034Z,68.80
2022-09-07T11:44:04.303Z,68.60
2022-09-07T11:46:41.338Z,68.20
2022-09-07T11:49:19.203Z,67.30
2022-09-07T11:51:54.938Z,66.50
2022-09-07T11:54:36.341Z,66.10
2022-09-07T11:57:23.888Z,65.10
2022-09-07T12:00:06.090Z,63.80
2022-09-07T12:03:02.071Z,62.60
2022-09-07T12:05:52.230Z,61.80
2022-09-07T12:08:35.385Z,60.20
2022-09-07T12:11:14.010Z,57.40
2022-09-07T12:14:05.254Z,57.50
2022-09-07T12:16:53.800Z,54.70
2022-09-07T12:19:26.775Z,54.00
2022-09-07T12:22:00.223Z,53.20
2022-09-07T12:24:43.504Z,52.50
2022-09-07T12:27:40.157Z,52.00
2022-09-07T12:30:49.445Z,51.30
2022-09-07T12:33:31.687Z,50.50
2022-09-07T12:36:48.307Z,49.60
2022-09-07T12:39:25.604Z,48.70
2022-09-07T12:45:45.153Z,46.60
2022-09-07T12:48:31.821Z,46.60
2022-09-07T12:51:10.088Z,46.60
2022-09-07T12:53:57.588Z,46.40
2022-09-07T12:56:42.790Z,46.80
2022-09-07T12:59:44.783Z,46.50
2022-09-07T13:02:42.564Z,46.40
2022-09-07T13:05:25.434Z,46.00
2022-09-07T13:08:14.394Z,45.40
2022-09-07T13:10:48.092Z,45.00
2022-09-07T13:16:31.432Z,44.90
2022-09-07T13:19:05.181Z,44.80
2022-09-07T13:21:39.923Z,44.50
2022-09-07T13:24:47.642Z,44.60
2022-09-07T13:27:43.378Z,44.40
2022-09-07T13:30:45.178Z,44.10
2022-09-07T13:33:48.405Z,43.80
2022-09-07T13:36:25.807Z,43.50
2022-09-07T13:38:58.727Z,43.50
2022-09-07T13:41:37.183Z,43.10
2022-09-07T13:44:25.036Z,43.20
2022-09-07T13:47:08.609Z,43.30
2022-09-07T13:49:56.232Z,43.30
2022-09-07T13:52:40.101Z,43.40
2022-09-07T13:55:26.085Z,42.90
2022-09-07T13:58:08.287Z,42.50
2022-09-07T14:00:52.265Z,42.60
2022-09-07T14:03:26.275Z,42.80
2022-09-07T14:06:15.183Z,43.20
2022-09-07T14:08:48.070Z,43.70
2022-09-07T14:11:22.028Z,44.40
2022-09-07T14:14:08.055Z,44.00
2022-09-07T14:16:43.735Z,44.60
2022-09-07T14:19:24.532Z,44.10
2022-09-07T14:21:58.344Z,44.00
2022-09-07T14:24:33.457Z,43.70
2022-09-07T14:27:06.444Z,43.70
2022-09-07T14:29:38.167Z,43.80
2022-09-07T14:32:16.011Z,43.60
2022-09-07T14:34:48.273Z,43.30
2022-09-07T14:37:21.857Z,43.00
2022-09-07T14:39:54.332Z,43.00
2022-09-07T14:42:26.646Z,42.90
2022-09-07T14:45:19.020Z,43.00
2022-09-07T14:47:54.243Z,42.70
2022-09-07T14:50:31.630Z,42.40
2022-09-07T14:56:02.486Z,42.30
2022-09-07T14:58:34.228Z,42.60
2022-09-07T15:04:21.419Z,43.00
2022-09-07T15:07:08.622Z,43.20
2022-09-07T15:09:41.424Z,43.30
2022-09-07T15:12:18.107Z,43.50
2022-09-07T15:14:50.559Z,43.70
2022-09-07T15:20:40.748Z,44.40
2022-09-07T15:23:14.107Z,44.60
2022-09-07T15:25:54.305Z,44.90
2022-09-07T15:34:16.508Z,45.80
2022-09-07T15:36:56.514Z,46.10
2022-09-07T15:39:31.459Z,46.50
2022-09-07T15:44:59.248Z,47.10
2022-09-07T15:50:54.034Z,47.30
2022-09-07T15:54:11.919Z,47.40
2022-09-07T16:00:08.916Z,47.30
2022-09-07T16:03:06.835Z,47.10
2022-09-07T16:05:40.974Z,47.10
2022-09-07T16:08:54.026Z,47.10
2022-09-07T16:11:52.080Z,46.90
2022-09-07T16:14:34.982Z,46.80
2022-09-07T16:17:47.722Z,46.70
2022-09-07T16:20:45.951Z,46.90
2022-09-07T16:24:03.670Z,46.90
2022-09-07T16:33:45.008Z,46.70
2022-09-07T16:36:35.117Z,46.90
2022-09-07T16:39:41.964Z,46.90
2022-09-07T16:42:46.133Z,47.20
2022-09-07T16:46:04.658Z,47.40
2022-09-07T16:48:37.491Z,47.50
2022-09-07T16:51:49.897Z,47.70
2022-09-07T17:01:34.900Z,48.40
2022-09-07T17:04:46.281Z,48.60
2022-09-07T17:07:44.699Z,48.80
2022-09-07T17:10:49.546Z,48.90
2022-09-07T17:16:45.022Z,49.20
2022-09-07T17:20:12.396Z,49.30
2022-09-07T17:23:07.954Z,49.50
2022-09-07T17:32:49.908Z,49.50
2022-09-07T17:43:38.618Z,49.70
2022-09-07T17:45:37.748Z,49.80
2022-09-07T17:48:33.976Z,49.80
2022-09-07T17:51:27.904Z,50.00
2022-09-07T17:54:42.030Z,50.00
2022-09-07T17:57:44.021Z,49.80
2022-09-07T18:00:51.049Z,49.80
2022-09-07T18:03:48.336Z,49.70
2022-09-07T18:06:46.992Z,49.70
2022-09-07T18:09:43.001Z,49.70
2022-09-07T18:15:38.509Z,49.80
2022-09-07T18:18:51.045Z,49.90
2022-09-07T18:21:42.275Z,50.10
2022-09-07T18:24:41.521Z,50.10
2022-09-07T18:27:33.939Z,50.50
2022-09-07T18:30:40.962Z,50.70
2022-09-07T18:33:44.300Z,51.10
2022-09-07T18:36:48.902Z,51.30
2022-09-07T18:39:33.527Z,51.50
2022-09-07T18:42:16.661Z,51.50
2022-09-07T18:45:33.041Z,52.10
2022-09-07T18:48:21.028Z,52.90
2022-09-07T18:51:09.795Z,54.00
2022-09-07T18:54:03.652Z,57.20
2022-09-07T18:56:39.252Z,58.80
2022-09-07T18:59:29.820Z,58.80
2022-09-07T19:02:33.009Z,60.20
2022-09-07T19:05:53.104Z,61.00
2022-09-07T19:08:57.972Z,61.50
2022-09-07T19:11:43.852Z,62.30
2022-09-07T19:14:39.221Z,63.00
2022-09-07T19:17:11.834Z,63.50
2022-09-07T19:20:02.880Z,63.90
2022-09-07T19:22:44.267Z,64.70
2022-09-07T19:28:21.890Z,66.40
2022-09-07T19:31:09.524Z,67.10
2022-09-07T19:34:07.526Z,67.80
2022-09-07T19:37:04.136Z,68.40
2022-09-07T19:39:58.471Z,69.20
2022-09-07T19:42:45.446Z,69.40
2022-09-07T19:45:43.649Z,69.90
2022-09-07T19:48:26.768Z,70.70
2022-09-07T19:53:46.976Z,83.80
2022-09-07T19:56:33.267Z,72.30
2022-09-07T20:03:17.903Z,72.80
2022-09-07T20:06:46.356Z,73.60
2022-09-07T20:09:24.218Z,73.70
2022-09-07T20:12:09.574Z,73.70
2022-09-07T20:14:48.158Z,74.10
2022-09-07T20:17:33.157Z,74.30
2022-09-07T20:20:27.215Z,74.70
2022-09-07T20:23:04.829Z,75.50
2022-09-07T20:25:59.541Z,75.70
2022-09-07T20:28:32.079Z,76.40
2022-09-07T20:34:21.124Z,76.90
2022-09-07T20:37:05.265Z,76.80
2022-09-07T20:39:39.858Z,77.50
2022-09-07T20:42:45.163Z,78.10
2022-09-07T20:45:22.993Z,79.00
2022-09-07T20:48:22.019Z,79.30
2022-09-07T20:51:27.848Z,79.90
2022-09-07T20:54:19.726Z,80.50
2022-09-07T20:57:11.903Z,81.30
2022-09-07T21:00:12.374Z,82.00
2022-09-07T21:02:44.244Z,82.60
2022-09-07T21:05:16.173Z,82.90
2022-09-07T21:07:47.951Z,83.40
2022-09-07T21:10:21.348Z,83.90
2022-09-07T21:12:54.945Z,84.40
2022-09-07T21:15:26.672Z,85.20
2022-09-07T21:17:58.409Z,86.10
2022-09-07T21:20:30.190Z,86.50
2022-09-07T21:23:01.893Z,87.00
2022-09-07T21:25:34.989Z,87.10
2022-09-07T21:28:06.726Z,87.60
2022-09-07T21:30:38.520Z,88.20
2022-09-07T21:33:10.671Z,89.00
2022-09-07T21:35:42.449Z,89.50
2022-09-07T21:38:14.187Z,89.90
2022-09-07T21:40:47.691Z,90.20
2022-09-07T21:43:19.416Z,90.60
2022-09-07T21:45:51.278Z,91.10
2022-09-07T21:48:23.210Z,91.40
2022-09-07T21:50:57.009Z,91.70
2022-09-07T21:53:29.314Z,92.00
2022-09-07T21:56:04.775Z,92.00
2022-09-07T21:58:36.591Z,91.90
2022-09-07T22:01:12.658Z,91.90
2022-09-07T22:03:45.948Z,92.00
2022-09-07T22:06:17.736Z,92.10
2022-09-07T22:08:50.007Z,92.10
2022-09-07T22:11:25.872Z,92.10
2022-09-07T22:14:00.223Z,92.30
2022-09-07T22:16:33.354Z,92.40
2022-09-07T22:19:06.632Z,92.60
2022-09-07T22:21:38.420Z,92.90
2022-09-07T22:24:11.521Z,92.40
2022-09-07T22:26:44.676Z,92.60
2022-09-07T22:29:16.425Z,92.90
2022-09-07T22:31:48.269Z,92.90
2022-09-07T22:34:20.115Z,93.00
2022-09-07T22:36:51.926Z,93.20
2022-09-07T22:39:23.729Z,93.20
2022-09-07T22:41:56.933Z,93.00
2022-09-07T22:44:29.978Z,92.70
2022-09-07T22:47:01.747Z,92.50
2022-09-07T22:49:33.641Z,92.40
2022-09-07T22:52:05.553Z,92.30
2022-09-07T22:54:37.290Z,92.20
2022-09-07T22:57:10.436Z,92.20
2022-09-07T22:59:42.470Z,92.30
2022-09-07T23:02:14.279Z,92.40
2022-09-07T23:04:46.199Z,92.20
2022-09-07T23:07:18.358Z,92.00
2022-09-07T23:09:50.148Z,92.00
2022-09-07T23:12:23.222Z,92.00
2022-09-07T23:14:55.037Z,92.30
2022-09-07T23:17:26.774Z,92.60
2022-09-07T23:19:58.541Z,93.00
2022-09-07T23:22:33.192Z,93.40
2022-09-07T23:25:06.020Z,93.80
2022-09-07T23:27:39.417Z,94.10
2022-09-07T23:30:12.638Z,94.20
2022-09-07T23:32:44.500Z,94.30
2022-09-07T23:35:16.799Z,94.20
2022-09-07T23:37:48.945Z,94.10
2022-09-07T23:40:20.771Z,93.90
2022-09-07T23:42:53.857Z,93.70
2022-09-07T23:45:26.218Z,93.50
2022-09-07T23:47:57.970Z,93.10
2022-09-07T23:50:29.723Z,92.70
2022-09-07T23:53:01.736Z,92.30
2022-09-07T23:55:33.500Z,91.90
2022-09-07T23:58:06.962Z,91.80
